Overview Statistics Trail Chart Weather Telemetry Raw packets
 

This is the latest recevied weather packets stored in our database for station/object TA5KA. If no packets are shown the sender has not sent any weather packets the latest 10 day(s).

<< 39 40 41 42 43 44 45 >>
Time Temp. Humidity Pressure Rain* Wind** Luminosity Snow
1788083222 20° C 52% 1011 hPa 0 mm - - -
1788082621 20° C 52% 1011 hPa 0 mm - - -
1788082020 20° C 52% 1011 hPa 0 mm - - -
1788082019 20° C 52% 1011 hPa 0 mm - - -
1788081418 20° C 52% 1011 hPa 0 mm - - -
1788080816 20° C 52% 1011 hPa 0 mm - - -
1788080216 18.89° C 58% 1012 hPa 0 mm - - -
1788079614 18.89° C 58% 1012 hPa 0 mm - - -
1788079012 18.89° C 58% 1012 hPa 0 mm - - -
1788078411 18.89° C 58% 1012 hPa 0 mm - - -
1788077810 18.89° C 58% 1012 hPa 0 mm - - -
1788077208 18.89° C 58% 1012 hPa 0 mm - - -
1788076607 16.67° C 69% 1012 hPa 0 mm - - -
1788076006 16.67° C 69% 1012 hPa 0 mm - - -
1788075405 16.67° C 69% 1012 hPa 0 mm - - -
1788074803 16.67° C 69% 1012 hPa 0 mm - - -
1788074202 18.33° C 62% 1012 hPa 0 mm - - -
1788073600 18.33° C 62% 1012 hPa 0 mm - - -
1788072999 16.67° C 70% 1012 hPa 0 mm - - -
1788072398 16.67° C 70% 1012 hPa 0 mm - - -
1788071797 16.67° C 70% 1012 hPa 0 mm - - -
1788071195 16.67° C 70% 1012 hPa 0 mm - - -
1788070594 16.67° C 70% 1012 hPa 0 mm - - -
1788069993 16.67° C 70% 1012 hPa 0 mm - - -
1788069392 16.11° C 71% 1012 hPa 0 mm - - -

* Rain latest hour (hover to see other rain measurements)
** Current wind speed in m/s (hover to see current wind gust speed)